SCHC weather

Chicureo Airport
Santiago, Santiago Metropolitan Region, Chile

Public forecast

Using degrees Celsius for public forecast. Weather courtesy of forecast.io.

METAR (pilot weather report)

Closest report is Comodoro Arturo Merino Benítez International Airport, 10.2 nm (19.0 km) SW. Retrieved 2019/07/17 17:00 UTC (37 minutes ago):

SCEL 171700Z 15004KT 080V210 6000 SCT170 BKN220 15/05 Q1020NOSIG

TAF (pilot weather forecast)

Closest forecast is Comodoro Arturo Merino Benítez International Airport, 10.2 nm (19.0 km) SW. Retrieved 2019/07/17 12:00 UTC (6 hours ago):

TAF COR SCEL 171127Z 1712/1812 VRB02KT 5000 HZ SCT180 BKN200 TX18/ 1719Z TN02/1810Z TEMPO 1712/1714 3000 BR BECMG 1715/1717 7000 BKN180 BECMG 1719/1720 18006KT 9999 BECMG 1801/1803 15004KT SCT160 TEMPO 1808/1812 4000 BR FEW130